Wednesday, October 18, 2017, 6:00 PM EDT
Back to Local

KBGM, Binghamton Regional Airport

Location: Johnson City, NY, United States Lat: 42.2
Local Time: 6:00 PM EDT (22:00 GMT) Lon: -75.983
Time Zone: US/Eastern Elev: 1637 ft

Show me the last for .
Show Coded

Time T Td Feel RH Dir Speed Gust Alt SLP Vis Weather Sky Remarks
2017-10-18 16:53 66 42 - 41 220° 6 - 30.23 30.23 10 CLR None
2017-10-18 15:53 66 43 - 43 Variable 7 - 30.25 30.24 10 CLR None
2017-10-18 14:53 66 44 - 44 240° 12 - 30.26 30.26 10 CLR None
2017-10-18 13:53 66 44 - 44 260° 10 - 30.27 30.27 10 CLR 6-hr Min Temp (2pm): 45.0°F
6-hr Max Temp (2pm): 66.0°F
2017-10-18 12:53 63 44 - 50 280° 5 - 30.29 30.30 10 CLR None
2017-10-18 11:53 61 44 - 53 280° 6 - 30.32 30.32 10 CLR None
2017-10-18 10:53 57 43 - 59 270° 6 - 30.31 30.32 10 CLR None
2017-10-18 09:53 52 40 - 63 250° 9 - 30.31 30.32 10 CLR None
2017-10-18 08:53 49 38 45 65 240° 8 - 30.31 30.32 10 CLR None
2017-10-18 07:53 44 37 40 76 250° 7 - 30.28 30.30 10 CLR 6-hr Min Temp (8am): 43.0°F
6-hr Max Temp (8am): 46.9°F
2017-10-18 06:53 44 37 39 76 250° 9 - 30.27 30.29 10 CLR None
2017-10-18 05:53 46 37 41 70 250° 9 - 30.26 30.27 10 CLR None
2017-10-18 04:53 45 36 41 70 240° 7 - 30.24 30.25 10 CLR None
2017-10-18 03:53 46 36 42 67 240° 8 - 30.23 30.24 10 CLR None
2017-10-18 02:53 47 36 44 65 230° 7 - 30.22 30.24 10 CLR None
2017-10-18 01:53 47 36 44 65 220° 7 - 30.22 30.24 10 CLR 6-hr Min Temp (2am): 46.0°F
6-hr Max Temp (2am): 50.0°F
2017-10-18 00:53 47 35 43 63 220° 9 - 30.23 30.24 10 CLR 24-hr Min Temp (1am): 30.9°F
24-hr Max Temp (1am): 55.0°F
2017-10-17 23:53 46 34 43 62 180° 6 - 30.23 30.24 10 CLR None
2017-10-17 22:53 47 34 44 60 210° 7 - 30.22 30.24 10 CLR None
2017-10-17 21:53 48 34 45 58 210° 7 - 30.21 30.24 10 CLR None
2017-10-17 20:53 48 33 44 56 210° 8 - 30.20 30.23 10 CLR None
2017-10-17 19:53 49 33 45 54 210° 9 - 30.19 30.22 10 CLR 6-hr Min Temp (8pm): 48.9°F
6-hr Max Temp (8pm): 55.0°F
2017-10-17 18:53 50 32 48 49 200° 6 - 30.18 30.21 10 CLR None

Support USWX by starting your Amazon purchase here.